Station Historical Data
Daily Summary for June 26, 2017 Units:  Both    English   Metric
« Previous Day
Next Day »
Daily Weekly Monthly Yearly Custom
  High: Low: Average:
Temperature: 71.8 °F /  22.1 °C 56.1 °F /  13.4 °C 64.6 °F /  18.1 °C
Dew Point: 57.5 °F /  14.2 °C 47.0 °F /  8.3 °C 53.1 °F /  11.7 °C
Humidity: 76% 54% 67%
Wind Speed: 17.0mph /  27.4km/h - 5.4mph /  8.7km/h
Wind Gust: 24.0mph /  38.6km/h - -
Wind- - WSW
Pressure: 29.99 in /  1015.5 hPa 29.92 in /  1013.1 hPa -
Precipitation: 0.00 in /  0 mm    
Historical Graphs
 
 
Tabular Data for June 26, 2017
Time Temperature Dew Point Pressure Wind Wind Speed Wind Gust Humidity Rainfall Rate (Hourly)
00:04 64.2 °F /  17.9 °C 52.2 °F /  11.2 °C 29.98in /  1015.1hPa WSW 4.0mph /  6.4km/h 9.0mph /  14.5km/h 65% 0.00in /  0mm
00:09 64.1 °F /  17.8 °C 52.1 °F /  11.2 °C 29.98in /  1015.1hPa WNW 5.0mph /  8km/h 7.0mph /  11.3km/h 65% 0.00in /  0mm
00:14 64.0 °F /  17.8 °C 52.0 °F /  11.1 °C 29.98in /  1015.1hPa WSW 3.0mph /  4.8km/h 9.0mph /  14.5km/h 65% 0.00in /  0mm
00:19 64.0 °F /  17.8 °C 51.6 °F /  10.9 °C 29.98in /  1015.1hPa West 4.0mph /  6.4km/h 8.0mph /  12.9km/h 64% 0.00in /  0mm
00:24 63.8 °F /  17.7 °C 51.8 °F /  11 °C 29.98in /  1015.1hPa NW 8.0mph /  12.9km/h 8.0mph /  12.9km/h 65% 0.00in /  0mm
00:29 63.8 °F /  17.7 °C 51.4 °F /  10.8 °C 29.98in /  1015.1hPa WSW 4.0mph /  6.4km/h 8.0mph /  12.9km/h 64% 0.00in /  0mm
00:34 63.8 °F /  17.7 °C 51.4 °F /  10.8 °C 29.98in /  1015.1hPa WNW 3.0mph /  4.8km/h 7.0mph /  11.3km/h 64% 0.00in /  0mm
00:39 63.7 °F /  17.6 °C 51.7 °F /  10.9 °C 29.98in /  1015.1hPa WSW 5.0mph /  8km/h 6.0mph /  9.7km/h 65% 0.00in /  0mm
00:44 63.7 °F /  17.6 °C 51.7 °F /  10.9 °C 29.98in /  1015.1hPa West 3.0mph /  4.8km/h 8.0mph /  12.9km/h 65% 0.00in /  0mm
00:49 63.5 °F /  17.5 °C 51.5 °F /  10.8 °C 29.98in /  1015.1hPa West 3.0mph /  4.8km/h 8.0mph /  12.9km/h 65% 0.00in /  0mm
00:54 63.3 °F /  17.4 °C 51.7 °F /  10.9 °C 29.98in /  1015.1hPa West 3.0mph /  4.8km/h 6.0mph /  9.7km/h 66% 0.00in /  0mm
00:59 63.3 °F /  17.4 °C 52.2 °F /  11.2 °C 29.98in /  1015.1hPa West 2.0mph /  3.2km/h 6.0mph /  9.7km/h 67% 0.00in /  0mm
01:04 63.3 °F /  17.4 °C 52.6 °F /  11.4 °C 29.98in /  1015.1hPa West 3.0mph /  4.8km/h 6.0mph /  9.7km/h 68% 0.00in /  0mm
01:09 63.3 °F /  17.4 °C 53.0 °F /  11.7 °C 29.98in /  1015.1hPa West 3.0mph /  4.8km/h 6.0mph /  9.7km/h 69% 0.00in /  0mm
01:14 63.2 °F /  17.3 °C 52.9 °F /  11.6 °C 29.98in /  1015.1hPa West 1.0mph /  1.6km/h 4.0mph /  6.4km/h 69% 0.00in /  0mm
01:19 63.3 °F /  17.4 °C 53.0 °F /  11.7 °C 29.98in /  1015.1hPa WSW 4.0mph /  6.4km/h 7.0mph /  11.3km/h 69% 0.00in /  0mm
01:24 63.3 °F /  17.4 °C 53.0 °F /  11.7 °C 29.98in /  1015.1hPa WSW 4.0mph /  6.4km/h 7.0mph /  11.3km/h 69% 0.00in /  0mm
01:29 63.2 °F /  17.3 °C 53.3 °F /  11.8 °C 29.98in /  1015.1hPa West 6.0mph /  9.7km/h 7.0mph /  11.3km/h 70% 0.00in /  0mm
01:34 63.2 °F /  17.3 °C 53.3 °F /  11.8 °C 29.97in /  1014.8hPa WNW 1.0mph /  1.6km/h 6.0mph /  9.7km/h 70% 0.00in /  0mm
01:39 63.1 °F /  17.3 °C 52.8 °F /  11.6 °C 29.97in /  1014.8hPa West 3.0mph /  4.8km/h 7.0mph /  11.3km/h 69% 0.00in /  0mm
01:44 63.1 °F /  17.3 °C 52.8 °F /  11.6 °C 29.97in /  1014.8hPa West 4.0mph /  6.4km/h 8.0mph /  12.9km/h 69% 0.00in /  0mm
01:45 63.1 °F /  17.3 °C 52.8 °F /  11.6 °C 29.97in /  1014.8hPa WSW 3.0mph /  4.8km/h 8.0mph /  12.9km/h 69% 0.00in /  0mm
01:54 62.9 °F /  17.2 °C 52.6 °F /  11.4 °C 29.97in /  1014.8hPa West 3.0mph /  4.8km/h 7.0mph /  11.3km/h 69% 0.00in /  0mm
01:59 62.8 °F /  17.1 °C 52.5 °F /  11.4 °C 29.97in /  1014.8hPa WSW 3.0mph /  4.8km/h 6.0mph /  9.7km/h 69% 0.00in /  0mm
02:04 62.7 °F /  17.1 °C 52.4 °F /  11.3 °C 29.97in /  1014.8hPa WNW 4.0mph /  6.4km/h 7.0mph /  11.3km/h 69% 0.00in /  0mm
02:09 62.6 °F /  17 °C 52.3 °F /  11.3 °C 29.97in /  1014.8hPa WSW 5.0mph /  8km/h 6.0mph /  9.7km/h 69% 0.00in /  0mm
02:14 62.4 °F /  16.9 °C 52.5 °F /  11.4 °C 29.97in /  1014.8hPa NW 5.0mph /  8km/h 7.0mph /  11.3km/h 70% 0.00in /  0mm
02:19 62.2 °F /  16.8 °C 52.3 °F /  11.3 °C 29.97in /  1014.8hPa West 3.0mph /  4.8km/h 7.0mph /  11.3km/h 70% 0.00in /  0mm
02:24 62.0 °F /  16.7 °C 52.1 °F /  11.2 °C 29.97in /  1014.8hPa West 3.0mph /  4.8km/h 8.0mph /  12.9km/h 70% 0.00in /  0mm
02:29 61.8 °F /  16.6 °C 51.9 °F /  11.1 °C 29.97in /  1014.8hPa West 2.0mph /  3.2km/h 5.0mph /  8km/h 70% 0.00in /  0mm
02:34 61.5 °F /  16.4 °C 52.0 °F /  11.1 °C 29.96in /  1014.4hPa SW 1.0mph /  1.6km/h 4.0mph /  6.4km/h 71% 0.00in /  0mm
02:39 61.5 °F /  16.4 °C 52.0 °F /  11.1 °C 29.96in /  1014.4hPa WSW 2.0mph /  3.2km/h 4.0mph /  6.4km/h 71% 0.00in /  0mm
02:44 61.4 °F /  16.3 °C 51.9 °F /  11.1 °C 29.96in /  1014.4hPa Calm   3.0mph /  4.8km/h 71% 0.00in /  0mm
02:49 61.4 °F /  16.3 °C 51.9 °F /  11.1 °C 29.96in /  1014.4hPa WSW 1.0mph /  1.6km/h 5.0mph /  8km/h 71% 0.00in /  0mm
02:54 61.5 °F /  16.4 °C 51.6 °F /  10.9 °C 29.96in /  1014.4hPa WSW 3.0mph /  4.8km/h 4.0mph /  6.4km/h 70% 0.00in /  0mm
02:59 61.6 °F /  16.4 °C 51.7 °F /  10.9 °C 29.96in /  1014.4hPa WSW 3.0mph /  4.8km/h 6.0mph /  9.7km/h 70% 0.00in /  0mm
03:04 61.6 °F /  16.4 °C 51.7 °F /  10.9 °C 29.96in /  1014.4hPa Calm   4.0mph /  6.4km/h 70% 0.00in /  0mm
03:09 61.6 °F /  16.4 °C 51.7 °F /  10.9 °C 29.96in /  1014.4hPa WSW 1.0mph /  1.6km/h 3.0mph /  4.8km/h 70% 0.00in /  0mm
03:14 61.6 °F /  16.4 °C 51.7 °F /  10.9 °C 29.96in /  1014.4hPa WSW 2.0mph /  3.2km/h 5.0mph /  8km/h 70% 0.00in /  0mm
03:19 61.7 °F /  16.5 °C 51.8 °F /  11 °C 29.96in /  1014.4hPa WSW 2.0mph /  3.2km/h 6.0mph /  9.7km/h 70% 0.00in /  0mm
03:24 61.9 °F /  16.6 °C 52.0 °F /  11.1 °C 29.96in /  1014.4hPa WSW 2.0mph /  3.2km/h 6.0mph /  9.7km/h 70% 0.00in /  0mm
03:29 61.9 °F /  16.6 °C 52.0 °F /  11.1 °C 29.96in /  1014.4hPa WSW 2.0mph /  3.2km/h 5.0mph /  8km/h 70% 0.00in /  0mm
03:34 61.8 °F /  16.6 °C 52.3 °F /  11.3 °C 29.96in /  1014.4hPa West 3.0mph /  4.8km/h 6.0mph /  9.7km/h 71% 0.00in /  0mm
03:39 61.7 °F /  16.5 °C 52.2 °F /  11.2 °C 29.96in /  1014.4hPa WNW 3.0mph /  4.8km/h 6.0mph /  9.7km/h 71% 0.00in /  0mm
03:44 61.7 °F /  16.5 °C 52.2 °F /  11.2 °C 29.95in /  1014.1hPa WNW 3.0mph /  4.8km/h 5.0mph /  8km/h 71% 0.00in /  0mm
03:49 61.6 °F /  16.4 °C 52.1 °F /  11.2 °C 29.95in /  1014.1hPa West 2.0mph /  3.2km/h 6.0mph /  9.7km/h 71% 0.00in /  0mm
03:54 61.6 °F /  16.4 °C 52.1 °F /  11.2 °C 29.95in /  1014.1hPa WNW 1.0mph /  1.6km/h 5.0mph /  8km/h 71% 0.00in /  0mm
03:59 61.4 °F /  16.3 °C 51.9 °F /  11.1 °C 29.96in /  1014.4hPa WNW 2.0mph /  3.2km/h 4.0mph /  6.4km/h 71% 0.00in /  0mm
04:04 61.3 °F /  16.3 °C 52.2 °F /  11.2 °C 29.96in /  1014.4hPa WNW 2.0mph /  3.2km/h 5.0mph /  8km/h 72% 0.00in /  0mm
04:09 61.1 °F /  16.2 °C 52.0 °F /  11.1 °C 29.96in /  1014.4hPa WNW 1.0mph /  1.6km/h 4.0mph /  6.4km/h 72% 0.00in /  0mm
04:14 60.9 °F /  16.1 °C 52.2 °F /  11.2 °C 29.96in /  1014.4hPa West 2.0mph /  3.2km/h 5.0mph /  8km/h 73% 0.00in /  0mm
04:19 60.8 °F /  16 °C 52.1 °F /  11.2 °C 29.96in /  1014.4hPa West 3.0mph /  4.8km/h 7.0mph /  11.3km/h 73% 0.00in /  0mm
04:24 60.7 °F /  15.9 °C 52.0 °F /  11.1 °C 29.96in /  1014.4hPa West 4.0mph /  6.4km/h 8.0mph /  12.9km/h 73% 0.00in /  0mm
04:29 60.6 °F /  15.9 °C 51.9 °F /  11.1 °C 29.96in /  1014.4hPa West 3.0mph /  4.8km/h 8.0mph /  12.9km/h 73% 0.00in /  0mm
04:34 60.4 °F /  15.8 °C 52.1 °F /  11.2 °C 29.96in /  1014.4hPa West 3.0mph /  4.8km/h 6.0mph /  9.7km/h 74% 0.00in /  0mm
04:39 60.2 °F /  15.7 °C 51.9 °F /  11.1 °C 29.96in /  1014.4hPa West 5.0mph /  8km/h 7.0mph /  11.3km/h 74% 0.00in /  0mm
04:44 60.0 °F /  15.6 °C 51.7 °F /  10.9 °C 29.96in /  1014.4hPa West 4.0mph /  6.4km/h 7.0mph /  11.3km/h 74% 0.00in /  0mm
04:49 59.8 °F /  15.4 °C 51.5 °F /  10.8 °C 29.96in /  1014.4hPa West 3.0mph /  4.8km/h 7.0mph /  11.3km/h 74% 0.00in /  0mm
04:54 59.6 °F /  15.3 °C 51.3 °F /  10.7 °C 29.96in /  1014.4hPa West 3.0mph /  4.8km/h 5.0mph /  8km/h 74% 0.00in /  0mm
04:59 59.5 °F /  15.3 °C 51.6 °F /  10.9 °C 29.96in /  1014.4hPa West 3.0mph /  4.8km/h 6.0mph /  9.7km/h 75% 0.00in /  0mm
05:04 59.5 °F /  15.3 °C 51.6 °F /  10.9 °C 29.96in /  1014.4hPa WSW 2.0mph /  3.2km/h 6.0mph /  9.7km/h 75% 0.00in /  0mm
05:09 59.3 °F /  15.2 °C 51.4 °F /  10.8 °C 29.96in /  1014.4hPa West 2.0mph /  3.2km/h 4.0mph /  6.4km/h 75% 0.00in /  0mm
05:14 59.2 °F /  15.1 °C 51.3 °F /  10.7 °C 29.97in /  1014.8hPa West 2.0mph /  3.2km/h 5.0mph /  8km/h 75% 0.00in /  0mm
05:19 59.1 °F /  15.1 °C 51.2 °F /  10.7 °C 29.97in /  1014.8hPa West 2.0mph /  3.2km/h 5.0mph /  8km/h 75% 0.00in /  0mm
05:24 59.1 °F /  15.1 °C 51.5 °F /  10.8 °C 29.97in /  1014.8hPa WSW 1.0mph /  1.6km/h 6.0mph /  9.7km/h 76% 0.00in /  0mm
05:29 58.9 °F /  14.9 °C 51.3 °F /  10.7 °C 29.97in /  1014.8hPa West 2.0mph /  3.2km/h 6.0mph /  9.7km/h 76% 0.00in /  0mm
05:34 59.0 °F /  15 °C 51.4 °F /  10.8 °C 29.97in /  1014.8hPa West 1.0mph /  1.6km/h 4.0mph /  6.4km/h 76% 0.00in /  0mm
05:39 59.1 °F /  15.1 °C 51.5 °F /  10.8 °C 29.97in /  1014.8hPa WSW 1.0mph /  1.6km/h 5.0mph /  8km/h 76% 0.00in /  0mm
05:44 59.1 °F /  15.1 °C 51.5 °F /  10.8 °C 29.97in /  1014.8hPa WSW 1.0mph /  1.6km/h 5.0mph /  8km/h 76% 0.00in /  0mm
05:49 59.3 °F /  15.2 °C 51.7 °F /  10.9 °C 29.97in /  1014.8hPa WSW 2.0mph /  3.2km/h 6.0mph /  9.7km/h 76% 0.00in /  0mm
05:54 59.6 °F /  15.3 °C 52.0 °F /  11.1 °C 29.97in /  1014.8hPa WSW 2.0mph /  3.2km/h 6.0mph /  9.7km/h 76% 0.00in /  0mm
05:59 59.8 °F /  15.4 °C 51.9 °F /  11.1 °C 29.97in /  1014.8hPa WSW 3.0mph /  4.8km/h 6.0mph /  9.7km/h 75% 0.00in /  0mm
06:04 60.0 °F /  15.6 °C 52.1 °F /  11.2 °C 29.98in /  1015.1hPa WSW 3.0mph /  4.8km/h 7.0mph /  11.3km/h 75% 0.00in /  0mm
06:09 60.2 °F /  15.7 °C 51.9 °F /  11.1 °C 29.98in /  1015.1hPa WSW 6.0mph /  9.7km/h 6.0mph /  9.7km/h 74% 0.00in /  0mm
06:14 60.4 °F /  15.8 °C 52.1 °F /  11.2 °C 29.98in /  1015.1hPa WSW 3.0mph /  4.8km/h 8.0mph /  12.9km/h 74% 0.00in /  0mm
06:19 60.5 °F /  15.8 °C 51.8 °F /  11 °C 29.98in /  1015.1hPa WSW 3.0mph /  4.8km/h 8.0mph /  12.9km/h 73% 0.00in /  0mm
06:24 60.7 °F /  15.9 °C 52.0 °F /  11.1 °C 29.98in /  1015.1hPa West 4.0mph /  6.4km/h 10.0mph /  16.1km/h 73% 0.00in /  0mm
06:29 60.8 °F /  16 °C 52.1 °F /  11.2 °C 29.98in /  1015.1hPa WSW 7.0mph /  11.3km/h 8.0mph /  12.9km/h 73% 0.00in /  0mm
06:34 60.8 °F /  16 °C 52.1 °F /  11.2 °C 29.98in /  1015.1hPa West 6.0mph /  9.7km/h 7.0mph /  11.3km/h 73% 0.00in /  0mm
06:39 60.9 °F /  16.1 °C 52.2 °F /  11.2 °C 29.98in /  1015.1hPa West 2.0mph /  3.2km/h 7.0mph /  11.3km/h 73% 0.00in /  0mm
06:44 61.1 °F /  16.2 °C 52.4 °F /  11.3 °C 29.98in /  1015.1hPa West 3.0mph /  4.8km/h 7.0mph /  11.3km/h 73% 0.00in /  0mm
06:49 61.2 °F /  16.2 °C 52.5 °F /  11.4 °C 29.98in /  1015.1hPa West 3.0mph /  4.8km/h 9.0mph /  14.5km/h 73% 0.00in /  0mm
06:54 61.1 °F /  16.2 °C 52.4 °F /  11.3 °C 29.98in /  1015.1hPa West 4.0mph /  6.4km/h 9.0mph /  14.5km/h 73% 0.00in /  0mm
06:59 61.1 °F /  16.2 °C 52.4 °F /  11.3 °C 29.98in /  1015.1hPa West 4.0mph /  6.4km/h 9.0mph /  14.5km/h 73% 0.00in /  0mm
07:04 61.1 °F /  16.2 °C 52.4 °F /  11.3 °C 29.98in /  1015.1hPa West 5.0mph /  8km/h 10.0mph /  16.1km/h 73% 0.00in /  0mm
07:09 61.3 °F /  16.3 °C 52.6 °F /  11.4 °C 29.98in /  1015.1hPa WSW 4.0mph /  6.4km/h 7.0mph /  11.3km/h 73% 0.00in /  0mm
07:14 61.8 °F /  16.6 °C 53.1 °F /  11.7 °C 29.98in /  1015.1hPa West 3.0mph /  4.8km/h 11.0mph /  17.7km/h 73% 0.00in /  0mm
07:19 61.7 °F /  16.5 °C 53.0 °F /  11.7 °C 29.98in /  1015.1hPa West 4.0mph /  6.4km/h 11.0mph /  17.7km/h 73% 0.00in /  0mm
07:24 61.6 °F /  16.4 °C 52.9 °F /  11.6 °C 29.98in /  1015.1hPa West 5.0mph /  8km/h 10.0mph /  16.1km/h 73% 0.00in /  0mm
07:29 61.5 °F /  16.4 °C 53.1 °F /  11.7 °C 29.99in /  1015.5hPa SW 4.0mph /  6.4km/h 6.0mph /  9.7km/h 74% 0.00in /  0mm
07:34 62.1 °F /  16.7 °C 53.7 °F /  12.1 °C 29.99in /  1015.5hPa West 4.0mph /  6.4km/h 8.0mph /  12.9km/h 74% 0.00in /  0mm
07:39 62.5 °F /  16.9 °C 53.7 °F /  12.1 °C 29.98in /  1015.1hPa WNW 4.0mph /  6.4km/h 10.0mph /  16.1km/h 73% 0.00in /  0mm
07:44 62.6 °F /  17 °C 53.8 °F /  12.1 °C 29.98in /  1015.1hPa WSW 4.0mph /  6.4km/h 8.0mph /  12.9km/h 73% 0.00in /  0mm
07:49 62.5 °F /  16.9 °C 54.1 °F /  12.3 °C 29.99in /  1015.5hPa West 5.0mph /  8km/h 11.0mph /  17.7km/h 74% 0.00in /  0mm
07:54 62.7 °F /  17.1 °C 53.9 °F /  12.2 °C 29.99in /  1015.5hPa West 5.0mph /  8km/h 15.0mph /  24.1km/h 73% 0.00in /  0mm
07:59 62.7 °F /  17.1 °C 53.9 °F /  12.2 °C 29.99in /  1015.5hPa West 5.0mph /  8km/h 15.0mph /  24.1km/h 73% 0.00in /  0mm
08:04 62.8 °F /  17.1 °C 54.0 °F /  12.2 °C 29.99in /  1015.5hPa West 5.0mph /  8km/h 12.0mph /  19.3km/h 73% 0.00in /  0mm
08:09 63.1 °F /  17.3 °C 54.3 °F /  12.4 °C 29.98in /  1015.1hPa West 4.0mph /  6.4km/h 9.0mph /  14.5km/h 73% 0.00in /  0mm
08:14 63.2 °F /  17.3 °C 54.4 °F /  12.4 °C 29.98in /  1015.1hPa SW 6.0mph /  9.7km/h 10.0mph /  16.1km/h 73% 0.00in /  0mm
08:19 63.5 °F /  17.5 °C 54.7 °F /  12.6 °C 29.99in /  1015.5hPa West 3.0mph /  4.8km/h 9.0mph /  14.5km/h 73% 0.00in /  0mm
08:24 63.9 °F /  17.7 °C 54.7 °F /  12.6 °C 29.99in /  1015.5hPa SW 4.0mph /  6.4km/h 8.0mph /  12.9km/h 72% 0.00in /  0mm
08:29 64.2 °F /  17.9 °C 54.6 °F /  12.6 °C 29.99in /  1015.5hPa WSW 6.0mph /  9.7km/h 9.0mph /  14.5km/h 71% 0.00in /  0mm
08:34 63.9 °F /  17.7 °C 54.3 °F /  12.4 °C 29.99in /  1015.5hPa WNW 2.0mph /  3.2km/h 8.0mph /  12.9km/h 71% 0.00in /  0mm
08:39 64.0 °F /  17.8 °C 54.4 °F /  12.4 °C 29.99in /  1015.5hPa WNW 4.0mph /  6.4km/h 5.0mph /  8km/h 71% 0.00in /  0mm
08:44 65.7 °F /  18.7 °C 54.8 °F /  12.7 °C 29.99in /  1015.5hPa WSW 3.0mph /  4.8km/h 8.0mph /  12.9km/h 68% 0.00in /  0mm
08:49 65.2 °F /  18.4 °C 54.0 °F /  12.2 °C 29.99in /  1015.5hPa West 4.0mph /  6.4km/h 11.0mph /  17.7km/h 67% 0.00in /  0mm
08:54 64.9 °F /  18.3 °C 54.5 °F /  12.5 °C 29.99in /  1015.5hPa West 5.0mph /  8km/h 11.0mph /  17.7km/h 69% 0.00in /  0mm
08:59 65.1 °F /  18.4 °C 54.7 °F /  12.6 °C 29.99in /  1015.5hPa West 4.0mph /  6.4km/h 9.0mph /  14.5km/h 69% 0.00in /  0mm
09:04 64.6 °F /  18.1 °C 53.8 °F /  12.1 °C 29.99in /  1015.5hPa West 4.0mph /  6.4km/h 10.0mph /  16.1km/h 68% 0.00in /  0mm
09:09 65.0 °F /  18.3 °C 54.6 °F /  12.6 °C 29.99in /  1015.5hPa West 4.0mph /  6.4km/h 10.0mph /  16.1km/h 69% 0.00in /  0mm
09:14 65.2 °F /  18.4 °C 54.8 °F /  12.7 °C 29.99in /  1015.5hPa WNW 4.0mph /  6.4km/h 7.0mph /  11.3km/h 69% 0.00in /  0mm
09:24 64.4 °F /  18 °C 53.6 °F /  12 °C 29.99in /  1015.5hPa WSW 3.0mph /  4.8km/h 12.0mph /  19.3km/h 68% 0.00in /  0mm
09:29 65.0 °F /  18.3 °C 55.0 °F /  12.8 °C 29.99in /  1015.5hPa WSW 5.0mph /  8km/h 9.0mph /  14.5km/h 70% 0.00in /  0mm
09:34 66.3 °F /  19.1 °C 54.6 °F /  12.6 °C 29.99in /  1015.5hPa SW 8.0mph /  12.9km/h 9.0mph /  14.5km/h 66% 0.00in /  0mm
09:39 66.0 °F /  18.9 °C 53.9 °F /  12.2 °C 29.99in /  1015.5hPa WSW 4.0mph /  6.4km/h 10.0mph /  16.1km/h 65% 0.00in /  0mm
09:44 66.7 °F /  19.3 °C 53.7 °F /  12.1 °C 29.99in /  1015.5hPa West 9.0mph /  14.5km/h 12.0mph /  19.3km/h 63% 0.00in /  0mm
09:49 66.5 °F /  19.2 °C 54.8 °F /  12.7 °C 29.99in /  1015.5hPa WSW 6.0mph /  9.7km/h 12.0mph /  19.3km/h 66% 0.00in /  0mm
09:54 66.4 °F /  19.1 °C 54.3 °F /  12.4 °C 29.99in /  1015.5hPa WSW 5.0mph /  8km/h 12.0mph /  19.3km/h 65% 0.00in /  0mm
09:59 65.9 °F /  18.8 °C 55.0 °F /  12.8 °C 29.99in /  1015.5hPa WSW 5.0mph /  8km/h 13.0mph /  20.9km/h 68% 0.00in /  0mm
10:04 66.2 °F /  19 °C 55.7 °F /  13.2 °C 29.99in /  1015.5hPa South 8.0mph /  12.9km/h 11.0mph /  17.7km/h 69% 0.00in /  0mm
10:09 65.9 °F /  18.8 °C 55.4 °F /  13 °C 29.99in /  1015.5hPa WSW 6.0mph /  9.7km/h 11.0mph /  17.7km/h 69% 0.00in /  0mm
10:14 65.7 °F /  18.7 °C 55.6 °F /  13.1 °C 29.99in /  1015.5hPa SW 3.0mph /  4.8km/h 13.0mph /  20.9km/h 70% 0.00in /  0mm
10:19 66.8 °F /  19.3 °C 57.5 °F /  14.2 °C 29.99in /  1015.5hPa SW 10.0mph /  16.1km/h 13.0mph /  20.9km/h 72% 0.00in /  0mm
10:24 67.9 °F /  19.9 °C 56.9 °F /  13.8 °C 29.99in /  1015.5hPa SW 6.0mph /  9.7km/h 13.0mph /  20.9km/h 68% 0.00in /  0mm
10:29 66.9 °F /  19.4 °C 55.6 °F /  13.1 °C 29.99in /  1015.5hPa SW 8.0mph /  12.9km/h 10.0mph /  16.1km/h 67% 0.00in /  0mm
10:34 66.4 °F /  19.1 °C 55.5 °F /  13.1 °C 29.98in /  1015.1hPa WSW 4.0mph /  6.4km/h 15.0mph /  24.1km/h 68% 0.00in /  0mm
10:39 66.8 °F /  19.3 °C 56.3 °F /  13.5 °C 29.98in /  1015.1hPa West 5.0mph /  8km/h 15.0mph /  24.1km/h 69% 0.00in /  0mm
10:44 67.4 °F /  19.7 °C 56.5 °F /  13.6 °C 29.98in /  1015.1hPa SW 6.0mph /  9.7km/h 15.0mph /  24.1km/h 68% 0.00in /  0mm
10:49 67.6 °F /  19.8 °C 55.8 °F /  13.2 °C 29.98in /  1015.1hPa WSW 6.0mph /  9.7km/h 14.0mph /  22.5km/h 66% 0.00in /  0mm
10:54 67.4 °F /  19.7 °C 56.5 °F /  13.6 °C 29.98in /  1015.1hPa WSW 5.0mph /  8km/h 10.0mph /  16.1km/h 68% 0.00in /  0mm
10:59 68.3 °F /  20.2 °C 56.1 °F /  13.4 °C 29.98in /  1015.1hPa WSW 6.0mph /  9.7km/h 15.0mph /  24.1km/h 65% 0.00in /  0mm
11:04 68.5 °F /  20.3 °C 56.7 °F /  13.7 °C 29.98in /  1015.1hPa SW 6.0mph /  9.7km/h 12.0mph /  19.3km/h 66% 0.00in /  0mm
11:09 68.4 °F /  20.2 °C 55.7 °F /  13.2 °C 29.98in /  1015.1hPa SSW 6.0mph /  9.7km/h 13.0mph /  20.9km/h 64% 0.00in /  0mm
11:14 69.4 °F /  20.8 °C 56.7 °F /  13.7 °C 29.98in /  1015.1hPa West 14.0mph /  22.5km/h 14.0mph /  22.5km/h 64% 0.00in /  0mm
11:19 69.4 °F /  20.8 °C 56.7 °F /  13.7 °C 29.98in /  1015.1hPa WSW 7.0mph /  11.3km/h 14.0mph /  22.5km/h 64% 0.00in /  0mm
11:24 69.6 °F /  20.9 °C 55.6 °F /  13.1 °C 29.98in /  1015.1hPa WSW 7.0mph /  11.3km/h 14.0mph /  22.5km/h 61% 0.00in /  0mm
11:29 69.2 °F /  20.7 °C 56.1 °F /  13.4 °C 29.98in /  1015.1hPa SW 6.0mph /  9.7km/h 13.0mph /  20.9km/h 63% 0.00in /  0mm
11:34 69.9 °F /  21.1 °C 55.8 °F /  13.2 °C 29.98in /  1015.1hPa WSW 6.0mph /  9.7km/h 12.0mph /  19.3km/h 61% 0.00in /  0mm
11:39 69.9 °F /  21.1 °C 55.8 °F /  13.2 °C 29.98in /  1015.1hPa SW 5.0mph /  8km/h 12.0mph /  19.3km/h 61% 0.00in /  0mm
11:44 69.6 °F /  20.9 °C 55.1 °F /  12.8 °C 29.98in /  1015.1hPa SW 7.0mph /  11.3km/h 15.0mph /  24.1km/h 60% 0.00in /  0mm
11:49 69.6 °F /  20.9 °C 57.3 °F /  14.1 °C 29.98in /  1015.1hPa WSW 7.0mph /  11.3km/h 15.0mph /  24.1km/h 65% 0.00in /  0mm
11:54 69.9 °F /  21.1 °C 56.7 °F /  13.7 °C 29.98in /  1015.1hPa WSW 12.0mph /  19.3km/h 16.0mph /  25.7km/h 63% 0.00in /  0mm
11:59 69.5 °F /  20.8 °C 56.3 °F /  13.5 °C 29.98in /  1015.1hPa SSW 3.0mph /  4.8km/h 12.0mph /  19.3km/h 63% 0.00in /  0mm
12:04 69.7 °F /  20.9 °C 56.1 °F /  13.4 °C 29.98in /  1015.1hPa SW 8.0mph /  12.9km/h 17.0mph /  27.4km/h 62% 0.00in /  0mm
12:09 69.7 °F /  20.9 °C 56.5 °F /  13.6 °C 29.98in /  1015.1hPa SW 9.0mph /  14.5km/h 18.0mph /  29km/h 63% 0.00in /  0mm
12:14 69.5 °F /  20.8 °C 56.3 °F /  13.5 °C 29.97in /  1014.8hPa SW 7.0mph /  11.3km/h 18.0mph /  29km/h 63% 0.00in /  0mm
12:19 69.5 °F /  20.8 °C 54.5 °F /  12.5 °C 29.97in /  1014.8hPa WSW 9.0mph /  14.5km/h 13.0mph /  20.9km/h 59% 0.00in /  0mm
12:24 69.7 °F /  20.9 °C 56.5 °F /  13.6 °C 29.97in /  1014.8hPa WSW 5.0mph /  8km/h 14.0mph /  22.5km/h 63% 0.00in /  0mm
12:29 69.6 °F /  20.9 °C 56.0 °F /  13.3 °C 29.97in /  1014.8hPa WNW 14.0mph /  22.5km/h 14.0mph /  22.5km/h 62% 0.00in /  0mm
12:34 69.6 °F /  20.9 °C 56.4 °F /  13.6 °C 29.97in /  1014.8hPa SW 5.0mph /  8km/h 14.0mph /  22.5km/h 63% 0.00in /  0mm
12:39 69.1 °F /  20.6 °C 55.5 °F /  13.1 °C 29.97in /  1014.8hPa WSW 8.0mph /  12.9km/h 13.0mph /  20.9km/h 62% 0.00in /  0mm
12:44 68.6 °F /  20.3 °C 55.5 °F /  13.1 °C 29.97in /  1014.8hPa SW 10.0mph /  16.1km/h 14.0mph /  22.5km/h 63% 0.00in /  0mm
12:49 69.4 °F /  20.8 °C 55.8 °F /  13.2 °C 29.97in /  1014.8hPa WSW 8.0mph /  12.9km/h 16.0mph /  25.7km/h 62% 0.00in /  0mm
12:54 70.4 °F /  21.3 °C 54.9 °F /  12.7 °C 29.97in /  1014.8hPa WSW 8.0mph /  12.9km/h 16.0mph /  25.7km/h 58% 0.00in /  0mm
12:59 69.4 °F /  20.8 °C 54.9 °F /  12.7 °C 29.96in /  1014.4hPa WSW 7.0mph /  11.3km/h 15.0mph /  24.1km/h 60% 0.00in /  0mm
13:04 69.7 °F /  20.9 °C 55.6 °F /  13.1 °C 29.96in /  1014.4hPa SW 13.0mph /  20.9km/h 17.0mph /  27.4km/h 61% 0.00in /  0mm
13:09 70.4 °F /  21.3 °C 56.8 °F /  13.8 °C 29.96in /  1014.4hPa WSW 8.0mph /  12.9km/h 17.0mph /  27.4km/h 62% 0.00in /  0mm
13:14 69.9 °F /  21.1 °C 56.7 °F /  13.7 °C 29.96in /  1014.4hPa WNW 6.0mph /  9.7km/h 16.0mph /  25.7km/h 63% 0.00in /  0mm
13:19 70.0 °F /  21.1 °C 55.9 °F /  13.3 °C 29.95in /  1014.1hPa WSW 16.0mph /  25.7km/h 18.0mph /  29km/h 61% 0.00in /  0mm
13:24 69.7 °F /  20.9 °C 57.4 °F /  14.1 °C 29.96in /  1014.4hPa SW 13.0mph /  20.9km/h 16.0mph /  25.7km/h 65% 0.00in /  0mm
13:29 70.3 °F /  21.3 °C 57.1 °F /  13.9 °C 29.95in /  1014.1hPa WSW 10.0mph /  16.1km/h 16.0mph /  25.7km/h 63% 0.00in /  0mm
13:34 70.4 °F /  21.3 °C 55.8 °F /  13.2 °C 29.96in /  1014.4hPa WSW 12.0mph /  19.3km/h 17.0mph /  27.4km/h 60% 0.00in /  0mm
13:39 70.2 °F /  21.2 °C 54.7 °F /  12.6 °C 29.95in /  1014.1hPa WSW 9.0mph /  14.5km/h 17.0mph /  27.4km/h 58% 0.00in /  0mm
13:44 70.2 °F /  21.2 °C 55.7 °F /  13.2 °C 29.95in /  1014.1hPa WSW 9.0mph /  14.5km/h 18.0mph /  29km/h 60% 0.00in /  0mm
13:49 70.1 °F /  21.2 °C 55.1 °F /  12.8 °C 29.95in /  1014.1hPa WSW 9.0mph /  14.5km/h 22.0mph /  35.4km/h 59% 0.00in /  0mm
13:54 70.1 °F /  21.2 °C 55.1 °F /  12.8 °C 29.95in /  1014.1hPa SW 10.0mph /  16.1km/h 22.0mph /  35.4km/h 59% 0.00in /  0mm
13:59 70.8 °F /  21.6 °C 56.2 °F /  13.4 °C 29.95in /  1014.1hPa SW 9.0mph /  14.5km/h 19.0mph /  30.6km/h 60% 0.00in /  0mm
14:04 70.5 °F /  21.4 °C 53.6 °F /  12 °C 29.95in /  1014.1hPa WSW 8.0mph /  12.9km/h 18.0mph /  29km/h 55% 0.00in /  0mm
14:09 70.6 °F /  21.4 °C 54.1 °F /  12.3 °C 29.95in /  1014.1hPa WSW 9.0mph /  14.5km/h 19.0mph /  30.6km/h 56% 0.00in /  0mm
14:14 70.8 °F /  21.6 °C 54.8 °F /  12.7 °C 29.95in /  1014.1hPa WSW 9.0mph /  14.5km/h 19.0mph /  30.6km/h 57% 0.00in /  0mm
14:19 70.4 °F /  21.3 °C 55.4 °F /  13 °C 29.94in /  1013.8hPa West 7.0mph /  11.3km/h 19.0mph /  30.6km/h 59% 0.00in /  0mm
14:24 71.4 °F /  21.9 °C 56.8 °F /  13.8 °C 29.95in /  1014.1hPa SW 10.0mph /  16.1km/h 14.0mph /  22.5km/h 60% 0.00in /  0mm
14:29 71.8 °F /  22.1 °C 56.7 °F /  13.7 °C 29.95in /  1014.1hPa WSW 9.0mph /  14.5km/h 15.0mph /  24.1km/h 59% 0.00in /  0mm
14:34 71.0 °F /  21.7 °C 54.0 °F /  12.2 °C 29.94in /  1013.8hPa SW 11.0mph /  17.7km/h 17.0mph /  27.4km/h 55% 0.00in /  0mm
14:39 70.6 °F /  21.4 °C 53.1 °F /  11.7 °C 29.94in /  1013.8hPa WSW 10.0mph /  16.1km/h 20.0mph /  32.2km/h 54% 0.00in /  0mm
14:44 71.0 °F /  21.7 °C 56.9 °F /  13.8 °C 29.94in /  1013.8hPa WSW 10.0mph /  16.1km/h 20.0mph /  32.2km/h 61% 0.00in /  0mm
14:49 70.8 °F /  21.6 °C 55.8 °F /  13.2 °C 29.94in /  1013.8hPa South 10.0mph /  16.1km/h 16.0mph /  25.7km/h 59% 0.00in /  0mm
14:54 70.8 °F /  21.6 °C 54.8 °F /  12.7 °C 29.93in /  1013.4hPa SW 5.0mph /  8km/h 16.0mph /  25.7km/h 57% 0.00in /  0mm
14:59 71.5 °F /  21.9 °C 57.3 °F /  14.1 °C 29.93in /  1013.4hPa WNW 8.0mph /  12.9km/h 12.0mph /  19.3km/h 61% 0.00in /  0mm
15:04 70.8 °F /  21.6 °C 53.3 °F /  11.8 °C 29.93in /  1013.4hPa WSW 9.0mph /  14.5km/h 16.0mph /  25.7km/h 54% 0.00in /  0mm
15:09 71.2 °F /  21.8 °C 55.2 °F /  12.9 °C 29.93in /  1013.4hPa WSW 9.0mph /  14.5km/h 16.0mph /  25.7km/h 57% 0.00in /  0mm
15:14 71.4 °F /  21.9 °C 55.4 °F /  13 °C 29.93in /  1013.4hPa SW 8.0mph /  12.9km/h 18.0mph /  29km/h 57% 0.00in /  0mm
15:19 70.9 °F /  21.6 °C 55.4 °F /  13 °C 29.93in /  1013.4hPa SW 9.0mph /  14.5km/h 21.0mph /  33.8km/h 58% 0.00in /  0mm
15:24 70.4 °F /  21.3 °C 54.9 °F /  12.7 °C 29.93in /  1013.4hPa SW 10.0mph /  16.1km/h 22.0mph /  35.4km/h 58% 0.00in /  0mm
15:29 71.1 °F /  21.7 °C 55.6 °F /  13.1 °C 29.94in /  1013.8hPa WSW 9.0mph /  14.5km/h 22.0mph /  35.4km/h 58% 0.00in /  0mm
15:34 70.7 °F /  21.5 °C 54.7 °F /  12.6 °C 29.94in /  1013.8hPa West 8.0mph /  12.9km/h 18.0mph /  29km/h 57% 0.00in /  0mm
15:39 70.6 °F /  21.4 °C 55.1 °F /  12.8 °C 29.94in /  1013.8hPa SW 8.0mph /  12.9km/h 18.0mph /  29km/h 58% 0.00in /  0mm
15:44 70.6 °F /  21.4 °C 56.0 °F /  13.3 °C 29.94in /  1013.8hPa South 7.0mph /  11.3km/h 18.0mph /  29km/h 60% 0.00in /  0mm
15:49 71.0 °F /  21.7 °C 55.9 °F /  13.3 °C 29.94in /  1013.8hPa SW 17.0mph /  27.4km/h 19.0mph /  30.6km/h 59% 0.00in /  0mm
15:54 71.0 °F /  21.7 °C 55.5 °F /  13.1 °C 29.95in /  1014.1hPa West 13.0mph /  20.9km/h 23.0mph /  37km/h 58% 0.00in /  0mm
15:59 70.6 °F /  21.4 °C 56.0 °F /  13.3 °C 29.95in /  1014.1hPa WSW 10.0mph /  16.1km/h 23.0mph /  37km/h 60% 0.00in /  0mm
16:04 70.8 °F /  21.6 °C 55.8 °F /  13.2 °C 29.95in /  1014.1hPa WSW 10.0mph /  16.1km/h 22.0mph /  35.4km/h 59% 0.00in /  0mm
16:09 70.4 °F /  21.3 °C 55.4 °F /  13 °C 29.95in /  1014.1hPa WSW 10.0mph /  16.1km/h 21.0mph /  33.8km/h 59% 0.00in /  0mm
16:14 69.7 °F /  20.9 °C 55.6 °F /  13.1 °C 29.95in /  1014.1hPa WSW 11.0mph /  17.7km/h 21.0mph /  33.8km/h 61% 0.00in /  0mm
16:19 69.6 °F /  20.9 °C 53.7 °F /  12.1 °C 29.95in /  1014.1hPa WSW 11.0mph /  17.7km/h 23.0mph /  37km/h 57% 0.00in /  0mm
16:24 69.3 °F /  20.7 °C 54.8 °F /  12.7 °C 29.95in /  1014.1hPa SW 13.0mph /  20.9km/h 22.0mph /  35.4km/h 60% 0.00in /  0mm
16:29 68.9 °F /  20.5 °C 54.9 °F /  12.7 °C 29.95in /  1014.1hPa SW 14.0mph /  22.5km/h 20.0mph /  32.2km/h 61% 0.00in /  0mm
16:34 68.9 °F /  20.5 °C 55.3 °F /  12.9 °C 29.95in /  1014.1hPa WSW 12.0mph /  19.3km/h 24.0mph /  38.6km/h 62% 0.00in /  0mm
16:39 68.7 °F /  20.4 °C 55.6 °F /  13.1 °C 29.94in /  1013.8hPa SW 11.0mph /  17.7km/h 24.0mph /  38.6km/h 63% 0.00in /  0mm
16:44 69.5 °F /  20.8 °C 56.3 °F /  13.5 °C 29.94in /  1013.8hPa WSW 8.0mph /  12.9km/h 19.0mph /  30.6km/h 63% 0.00in /  0mm
16:49 69.2 °F /  20.7 °C 55.6 °F /  13.1 °C 29.94in /  1013.8hPa WSW 9.0mph /  14.5km/h 21.0mph /  33.8km/h 62% 0.00in /  0mm
16:54 69.0 °F /  20.6 °C 55.4 °F /  13 °C 29.94in /  1013.8hPa West 6.0mph /  9.7km/h 20.0mph /  32.2km/h 62% 0.00in /  0mm
16:59 68.4 °F /  20.2 °C 55.3 °F /  12.9 °C 29.94in /  1013.8hPa WSW 11.0mph /  17.7km/h 17.0mph /  27.4km/h 63% 0.00in /  0mm
17:04 68.0 °F /  20 °C 55.4 °F /  13 °C 29.94in /  1013.8hPa WSW 10.0mph /  16.1km/h 22.0mph /  35.4km/h 64% 0.00in /  0mm
17:14 69.1 °F /  20.6 °C 55.1 °F /  12.8 °C 29.93in /  1013.4hPa WSW 9.0mph /  14.5km/h 17.0mph /  27.4km/h 61% 0.00in /  0mm
17:19 68.9 °F /  20.5 °C 55.8 °F /  13.2 °C 29.93in /  1013.4hPa SW 9.0mph /  14.5km/h 15.0mph /  24.1km/h 63% 0.00in /  0mm
17:24 69.5 °F /  20.8 °C 55.5 °F /  13.1 °C 29.93in /  1013.4hPa SSW 12.0mph /  19.3km/h 16.0mph /  25.7km/h 61% 0.00in /  0mm
17:29 68.9 °F /  20.5 °C 55.3 °F /  12.9 °C 29.93in /  1013.4hPa WSW 12.0mph /  19.3km/h 16.0mph /  25.7km/h 62% 0.00in /  0mm
17:34 69.1 °F /  20.6 °C 55.5 °F /  13.1 °C 29.93in /  1013.4hPa West 9.0mph /  14.5km/h 16.0mph /  25.7km/h 62% 0.00in /  0mm
17:39 68.4 °F /  20.2 °C 54.9 °F /  12.7 °C 29.93in /  1013.4hPa WSW 9.0mph /  14.5km/h 22.0mph /  35.4km/h 62% 0.00in /  0mm
17:44 68.5 °F /  20.3 °C 56.3 °F /  13.5 °C 29.93in /  1013.4hPa West 9.0mph /  14.5km/h 22.0mph /  35.4km/h 65% 0.00in /  0mm
17:49 69.0 °F /  20.6 °C 56.3 °F /  13.5 °C 29.93in /  1013.4hPa West 11.0mph /  17.7km/h 15.0mph /  24.1km/h 64% 0.00in /  0mm
17:54 69.0 °F /  20.6 °C 56.3 °F /  13.5 °C 29.93in /  1013.4hPa WSW 6.0mph /  9.7km/h 16.0mph /  25.7km/h 64% 0.00in /  0mm
17:59 68.3 °F /  20.2 °C 54.8 °F /  12.7 °C 29.93in /  1013.4hPa SW 11.0mph /  17.7km/h 18.0mph /  29km/h 62% 0.00in /  0mm
18:04 67.6 °F /  19.8 °C 55.4 °F /  13 °C 29.93in /  1013.4hPa WSW 7.0mph /  11.3km/h 12.0mph /  19.3km/h 65% 0.00in /  0mm
18:09 67.8 °F /  19.9 °C 55.6 °F /  13.1 °C 29.93in /  1013.4hPa WSW 9.0mph /  14.5km/h 22.0mph /  35.4km/h 65% 0.00in /  0mm
18:14 68.0 °F /  20 °C 55.4 °F /  13 °C 29.92in /  1013.1hPa WSW 12.0mph /  19.3km/h 20.0mph /  32.2km/h 64% 0.00in /  0mm
18:19 67.6 °F /  19.8 °C 55.0 °F /  12.8 °C 29.92in /  1013.1hPa SW 10.0mph /  16.1km/h 16.0mph /  25.7km/h 64% 0.00in /  0mm
18:24 67.4 °F /  19.7 °C 55.2 °F /  12.9 °C 29.92in /  1013.1hPa WSW 7.0mph /  11.3km/h 14.0mph /  22.5km/h 65% 0.00in /  0mm
18:29 67.2 °F /  19.6 °C 55.0 °F /  12.8 °C 29.92in /  1013.1hPa WSW 9.0mph /  14.5km/h 18.0mph /  29km/h 65% 0.00in /  0mm
18:34 66.7 °F /  19.3 °C 55.4 °F /  13 °C 29.93in /  1013.4hPa WSW 10.0mph /  16.1km/h 18.0mph /  29km/h 67% 0.00in /  0mm
18:39 67.3 °F /  19.6 °C 55.5 °F /  13.1 °C 29.93in /  1013.4hPa WSW 8.0mph /  12.9km/h 16.0mph /  25.7km/h 66% 0.00in /  0mm
18:44 67.3 °F /  19.6 °C 55.1 °F /  12.8 °C 29.93in /  1013.4hPa WSW 4.0mph /  6.4km/h 19.0mph /  30.6km/h 65% 0.00in /  0mm
18:49 67.4 °F /  19.7 °C 54.4 °F /  12.4 °C 29.93in /  1013.4hPa West 11.0mph /  17.7km/h 16.0mph /  25.7km/h 63% 0.00in /  0mm
18:54 67.0 °F /  19.4 °C 54.0 °F /  12.2 °C 29.93in /  1013.4hPa WSW 13.0mph /  20.9km/h 15.0mph /  24.1km/h 63% 0.00in /  0mm
18:59 66.9 °F /  19.4 °C 54.3 °F /  12.4 °C 29.93in /  1013.4hPa WSW 10.0mph /  16.1km/h 21.0mph /  33.8km/h 64% 0.00in /  0mm
19:04 66.7 °F /  19.3 °C 54.1 °F /  12.3 °C 29.93in /  1013.4hPa WSW 10.0mph /  16.1km/h 21.0mph /  33.8km/h 64% 0.00in /  0mm
19:09 66.4 °F /  19.1 °C 54.3 °F /  12.4 °C 29.93in /  1013.4hPa West 11.0mph /  17.7km/h 17.0mph /  27.4km/h 65% 0.00in /  0mm
19:14 66.3 °F /  19.1 °C 54.6 °F /  12.6 °C 29.93in /  1013.4hPa SSW 7.0mph /  11.3km/h 18.0mph /  29km/h 66% 0.00in /  0mm
19:19 66.3 °F /  19.1 °C 54.6 °F /  12.6 °C 29.93in /  1013.4hPa WSW 5.0mph /  8km/h 17.0mph /  27.4km/h 66% 0.00in /  0mm
19:24 66.3 °F /  19.1 °C 54.2 °F /  12.3 °C 29.92in /  1013.1hPa SSW 4.0mph /  6.4km/h 16.0mph /  25.7km/h 65% 0.00in /  0mm
19:29 66.4 °F /  19.1 °C 54.3 °F /  12.4 °C 29.93in /  1013.4hPa SW 8.0mph /  12.9km/h 16.0mph /  25.7km/h 65% 0.00in /  0mm
19:34 66.3 °F /  19.1 °C 54.2 °F /  12.3 °C 29.93in /  1013.4hPa SW 8.0mph /  12.9km/h 16.0mph /  25.7km/h 65% 0.00in /  0mm
19:39 66.0 °F /  18.9 °C 53.9 °F /  12.2 °C 29.93in /  1013.4hPa WSW 8.0mph /  12.9km/h 22.0mph /  35.4km/h 65% 0.00in /  0mm
19:44 65.7 °F /  18.7 °C 54.0 °F /  12.2 °C 29.93in /  1013.4hPa WSW 10.0mph /  16.1km/h 22.0mph /  35.4km/h 66% 0.00in /  0mm
19:49 65.5 °F /  18.6 °C 53.4 °F /  11.9 °C 29.93in /  1013.4hPa West 5.0mph /  8km/h 14.0mph /  22.5km/h 65% 0.00in /  0mm
19:54 65.4 °F /  18.6 °C 52.9 °F /  11.6 °C 29.93in /  1013.4hPa SW 12.0mph /  19.3km/h 17.0mph /  27.4km/h 64% 0.00in /  0mm
19:59 65.3 °F /  18.5 °C 52.8 °F /  11.6 °C 29.93in /  1013.4hPa SW 8.0mph /  12.9km/h 20.0mph /  32.2km/h 64% 0.00in /  0mm
20:04 65.3 °F /  18.5 °C 52.8 °F /  11.6 °C 29.93in /  1013.4hPa SSW 6.0mph /  9.7km/h 15.0mph /  24.1km/h 64% 0.00in /  0mm
20:09 65.2 °F /  18.4 °C 53.1 °F /  11.7 °C 29.93in /  1013.4hPa West 5.0mph /  8km/h 11.0mph /  17.7km/h 65% 0.00in /  0mm
20:14 65.1 °F /  18.4 °C 53.0 °F /  11.7 °C 29.93in /  1013.4hPa West 4.0mph /  6.4km/h 13.0mph /  20.9km/h 65% 0.00in /  0mm
20:19 65.2 °F /  18.4 °C 52.7 °F /  11.5 °C 29.93in /  1013.4hPa SW 4.0mph /  6.4km/h 14.0mph /  22.5km/h 64% 0.00in /  0mm
20:24 65.1 °F /  18.4 °C 52.6 °F /  11.4 °C 29.93in /  1013.4hPa West 4.0mph /  6.4km/h 12.0mph /  19.3km/h 64% 0.00in /  0mm
20:29 65.1 °F /  18.4 °C 52.2 °F /  11.2 °C 29.93in /  1013.4hPa WSW 6.0mph /  9.7km/h 15.0mph /  24.1km/h 63% 0.00in /  0mm
20:34 64.4 °F /  18 °C 48.8 °F /  9.3 °C 29.94in /  1013.8hPa West 7.0mph /  11.3km/h 16.0mph /  25.7km/h 57% 0.00in /  0mm
20:39 63.5 °F /  17.5 °C 48.5 °F /  9.2 °C 29.94in /  1013.8hPa WNW 7.0mph /  11.3km/h 17.0mph /  27.4km/h 58% 0.00in /  0mm
20:44 62.8 °F /  17.1 °C 47.3 °F /  8.5 °C 29.94in /  1013.8hPa NW 6.0mph /  9.7km/h 17.0mph /  27.4km/h 57% 0.00in /  0mm
20:49 62.5 °F /  16.9 °C 47.5 °F /  8.6 °C 29.94in /  1013.8hPa NW 6.0mph /  9.7km/h 13.0mph /  20.9km/h 58% 0.00in /  0mm
20:54 62.2 °F /  16.8 °C 47.2 °F /  8.4 °C 29.94in /  1013.8hPa WNW 4.0mph /  6.4km/h 10.0mph /  16.1km/h 58% 0.00in /  0mm
20:59 61.8 °F /  16.6 °C 47.3 °F /  8.5 °C 29.94in /  1013.8hPa WNW 5.0mph /  8km/h 10.0mph /  16.1km/h 59% 0.00in /  0mm
21:04 61.4 °F /  16.3 °C 47.4 °F /  8.6 °C 29.94in /  1013.8hPa NW 3.0mph /  4.8km/h 7.0mph /  11.3km/h 60% 0.00in /  0mm
21:09 61.3 °F /  16.3 °C 47.7 °F /  8.7 °C 29.94in /  1013.8hPa West 3.0mph /  4.8km/h 7.0mph /  11.3km/h 61% 0.00in /  0mm
21:14 61.1 °F /  16.2 °C 47.5 °F /  8.6 °C 29.94in /  1013.8hPa West 4.0mph /  6.4km/h 6.0mph /  9.7km/h 61% 0.00in /  0mm
21:19 60.9 °F /  16.1 °C 47.4 °F /  8.6 °C 29.94in /  1013.8hPa WNW 1.0mph /  1.6km/h 4.0mph /  6.4km/h 61% 0.00in /  0mm
21:24 60.6 °F /  15.9 °C 47.5 °F /  8.6 °C 29.94in /  1013.8hPa West 1.0mph /  1.6km/h 4.0mph /  6.4km/h 62% 0.00in /  0mm
21:29 60.4 °F /  15.8 °C 47.3 °F /  8.5 °C 29.94in /  1013.8hPa West 1.0mph /  1.6km/h 4.0mph /  6.4km/h 62% 0.00in /  0mm
21:34 60.3 °F /  15.7 °C 47.6 °F /  8.7 °C 29.95in /  1014.1hPa West 1.0mph /  1.6km/h 3.0mph /  4.8km/h 63% 0.00in /  0mm
21:39 60.2 °F /  15.7 °C 47.6 °F /  8.7 °C 29.95in /  1014.1hPa West 1.0mph /  1.6km/h 4.0mph /  6.4km/h 63% 0.00in /  0mm
21:44 60.1 °F /  15.6 °C 47.9 °F /  8.8 °C 29.95in /  1014.1hPa WSW 2.0mph /  3.2km/h 5.0mph /  8km/h 64% 0.00in /  0mm
21:49 60.2 °F /  15.7 °C 48.0 °F /  8.9 °C 29.95in /  1014.1hPa West 2.0mph /  3.2km/h 4.0mph /  6.4km/h 64% 0.00in /  0mm
21:54 60.0 °F /  15.6 °C 47.8 °F /  8.8 °C 29.95in /  1014.1hPa Calm   3.0mph /  4.8km/h 64% 0.00in /  0mm
21:59 59.7 °F /  15.4 °C 47.5 °F /  8.6 °C 29.95in /  1014.1hPa West 1.0mph /  1.6km/h 3.0mph /  4.8km/h 64% 0.00in /  0mm
22:04 59.4 °F /  15.2 °C 47.6 °F /  8.7 °C 29.95in /  1014.1hPa Calm     65% 0.00in /  0mm
22:09 59.1 °F /  15.1 °C 47.3 °F /  8.5 °C 29.95in /  1014.1hPa Calm     65% 0.00in /  0mm
22:14 58.6 °F /  14.8 °C 47.3 °F /  8.5 °C 29.95in /  1014.1hPa Calm   3.0mph /  4.8km/h 66% 0.00in /  0mm
22:19 58.2 °F /  14.6 °C 47.7 °F /  8.7 °C 29.94in /  1013.8hPa Calm   3.0mph /  4.8km/h 68% 0.00in /  0mm
22:24 58.0 °F /  14.4 °C 47.1 °F /  8.4 °C 29.95in /  1014.1hPa Calm     67% 0.00in /  0mm
22:29 58.0 °F /  14.4 °C 47.1 °F /  8.4 °C 29.95in /  1014.1hPa Calm   1.0mph /  1.6km/h 67% 0.00in /  0mm
22:34 58.0 °F /  14.4 °C 47.1 °F /  8.4 °C 29.94in /  1013.8hPa Calm   1.0mph /  1.6km/h 67% 0.00in /  0mm
22:39 57.8 °F /  14.3 °C 47.3 °F /  8.5 °C 29.95in /  1014.1hPa Calm     68% 0.00in /  0mm
22:44 57.3 °F /  14.1 °C 47.2 °F /  8.4 °C 29.95in /  1014.1hPa Calm     69% 0.00in /  0mm
22:49 56.7 °F /  13.7 °C 47.0 °F /  8.3 °C 29.95in /  1014.1hPa Calm     70% 0.00in /  0mm
22:54 56.5 °F /  13.6 °C 47.2 °F /  8.4 °C 29.95in /  1014.1hPa Calm     71% 0.00in /  0mm
22:59 56.4 °F /  13.6 °C 47.5 °F /  8.6 °C 29.95in /  1014.1hPa Calm     72% 0.00in /  0mm
23:04 56.3 °F /  13.5 °C 47.4 °F /  8.6 °C 29.95in /  1014.1hPa Calm     72% 0.00in /  0mm
23:09 56.1 °F /  13.4 °C 47.2 °F /  8.4 °C 29.95in /  1014.1hPa Calm     72% 0.00in /  0mm
23:14 56.1 °F /  13.4 °C 47.6 °F /  8.7 °C 29.95in /  1014.1hPa Calm     73% 0.00in /  0mm
23:19 56.3 °F /  13.5 °C 47.4 °F /  8.6 °C 29.95in /  1014.1hPa Calm     72% 0.00in /  0mm
23:24 56.4 °F /  13.6 °C 47.9 °F /  8.8 °C 29.94in /  1013.8hPa Calm     73% 0.00in /  0mm
23:29 56.5 °F /  13.6 °C 47.9 °F /  8.8 °C 29.94in /  1013.8hPa Calm     73% 0.00in /  0mm
23:34 56.4 °F /  13.6 °C 47.9 °F /  8.8 °C 29.94in /  1013.8hPa Calm     73% 0.00in /  0mm
23:39 56.4 °F /  13.6 °C 47.9 °F /  8.8 °C 29.94in /  1013.8hPa Calm     73% 0.00in /  0mm
23:44 56.3 °F /  13.5 °C 47.8 °F /  8.8 °C 29.94in /  1013.8hPa Calm     73% 0.00in /  0mm
23:49 56.5 °F /  13.6 °C 48.3 °F /  9.1 °C 29.94in /  1013.8hPa Calm     74% 0.00in /  0mm
23:54 56.8 °F /  13.8 °C 48.6 °F /  9.2 °C 29.94in /  1013.8hPa Calm     74% 0.00in /  0mm
23:59 57.1 °F /  13.9 °C 48.9 °F /  9.4 °C 29.94in /  1013.8hPa Calm     74% 0.00in /  0mm
Buffalo, New York, USA
Compliments of Weather Underground - 2.5 mb